sensor_id;sensor_type;location;lat;lon;timestamp;P1;durP1;ratioP1;P2;durP2;ratioP2
7541;SDS011;3812;50.006;8.230;2022-08-19T00:01:15;15.70;;;13.00;;
7541;SDS011;3812;50.006;8.230;2022-08-19T00:03:42;19.57;;;13.50;;
7541;SDS011;3812;50.006;8.230;2022-08-19T00:06:09;17.87;;;13.60;;
7541;SDS011;3812;50.006;8.230;2022-08-19T00:08:36;17.17;;;13.50;;
7541;SDS011;3812;50.006;8.230;2022-08-19T00:11:04;17.47;;;14.00;;
7541;SDS011;3812;50.006;8.230;2022-08-19T00:13:32;16.53;;;13.00;;
7541;SDS011;3812;50.006;8.230;2022-08-19T00:15:59;17.63;;;13.10;;
7541;SDS011;3812;50.006;8.230;2022-08-19T00:18:26;18.10;;;13.37;;
7541;SDS011;3812;50.006;8.230;2022-08-19T00:20:54;17.87;;;14.20;;
7541;SDS011;3812;50.006;8.230;2022-08-19T00:23:20;16.77;;;14.07;;
7541;SDS011;3812;50.006;8.230;2022-08-19T00:25:47;16.90;;;13.83;;
7541;SDS011;3812;50.006;8.230;2022-08-19T00:28:16;19.87;;;14.37;;
7541;SDS011;3812;50.006;8.230;2022-08-19T00:30:42;20.67;;;14.17;;
7541;SDS011;3812;50.006;8.230;2022-08-19T00:33:09;16.87;;;13.63;;
7541;SDS011;3812;50.006;8.230;2022-08-19T00:35:36;16.93;;;12.90;;
7541;SDS011;3812;50.006;8.230;2022-08-19T00:38:04;19.57;;;14.23;;
7541;SDS011;3812;50.006;8.230;2022-08-19T00:40:31;19.73;;;14.53;;
7541;SDS011;3812;50.006;8.230;2022-08-19T00:42:59;17.47;;;14.50;;
7541;SDS011;3812;50.006;8.230;2022-08-19T00:45:28;17.53;;;13.67;;
7541;SDS011;3812;50.006;8.230;2022-08-19T00:47:57;18.83;;;14.17;;
7541;SDS011;3812;50.006;8.230;2022-08-19T00:50:28;18.17;;;14.90;;
7541;SDS011;3812;50.006;8.230;2022-08-19T00:52:55;18.17;;;14.60;;
7541;SDS011;3812;50.006;8.230;2022-08-19T00:55:26;20.03;;;15.13;;
7541;SDS011;3812;50.006;8.230;2022-08-19T00:57:55;19.10;;;13.73;;
7541;SDS011;3812;50.006;8.230;2022-08-19T01:00:25;19.30;;;13.93;;
7541;SDS011;3812;50.006;8.230;2022-08-19T01:02:54;19.93;;;14.23;;
7541;SDS011;3812;50.006;8.230;2022-08-19T01:05:23;19.53;;;14.83;;
7541;SDS011;3812;50.006;8.230;2022-08-19T01:07:52;19.97;;;13.90;;
7541;SDS011;3812;50.006;8.230;2022-08-19T01:10:21;20.37;;;14.13;;
7541;SDS011;3812;50.006;8.230;2022-08-19T01:12:51;19.20;;;14.97;;
7541;SDS011;3812;50.006;8.230;2022-08-19T01:15:21;19.30;;;14.53;;
7541;SDS011;3812;50.006;8.230;2022-08-19T01:17:52;22.07;;;14.80;;
7541;SDS011;3812;50.006;8.230;2022-08-19T01:20:21;19.23;;;14.30;;
7541;SDS011;3812;50.006;8.230;2022-08-19T01:22:52;18.13;;;14.37;;
7541;SDS011;3812;50.006;8.230;2022-08-19T01:25:21;16.53;;;13.37;;
7541;SDS011;3812;50.006;8.230;2022-08-19T01:27:51;17.90;;;14.17;;
7541;SDS011;3812;50.006;8.230;2022-08-19T01:30:20;19.17;;;13.90;;
7541;SDS011;3812;50.006;8.230;2022-08-19T01:32:49;19.03;;;13.97;;
7541;SDS011;3812;50.006;8.230;2022-08-19T01:35:17;16.90;;;13.43;;
7541;SDS011;3812;50.006;8.230;2022-08-19T01:37:47;19.73;;;14.47;;
7541;SDS011;3812;50.006;8.230;2022-08-19T01:40:18;17.37;;;13.97;;
7541;SDS011;3812;50.006;8.230;2022-08-19T01:42:46;16.93;;;13.80;;
7541;SDS011;3812;50.006;8.230;2022-08-19T01:45:14;18.67;;;14.10;;
7541;SDS011;3812;50.006;8.230;2022-08-19T01:47:42;17.13;;;12.30;;
7541;SDS011;3812;50.006;8.230;2022-08-19T01:50:09;15.23;;;12.60;;
7541;SDS011;3812;50.006;8.230;2022-08-19T01:52:38;16.60;;;13.53;;
7541;SDS011;3812;50.006;8.230;2022-08-19T01:55:08;16.93;;;13.53;;
7541;SDS011;3812;50.006;8.230;2022-08-19T01:57:37;17.67;;;14.23;;
7541;SDS011;3812;50.006;8.230;2022-08-19T02:00:08;19.70;;;14.63;;
7541;SDS011;3812;50.006;8.230;2022-08-19T02:02:37;17.00;;;13.47;;
7541;SDS011;3812;50.006;8.230;2022-08-19T02:05:06;18.27;;;14.03;;
7541;SDS011;3812;50.006;8.230;2022-08-19T02:07:34;16.50;;;13.27;;
7541;SDS011;3812;50.006;8.230;2022-08-19T02:10:02;15.93;;;13.10;;
7541;SDS011;3812;50.006;8.230;2022-08-19T02:12:29;16.23;;;13.07;;
7541;SDS011;3812;50.006;8.230;2022-08-19T02:14:57;15.87;;;13.13;;
7541;SDS011;3812;50.006;8.230;2022-08-19T02:17:26;16.53;;;12.70;;
7541;SDS011;3812;50.006;8.230;2022-08-19T02:19:53;17.50;;;13.53;;
7541;SDS011;3812;50.006;8.230;2022-08-19T02:22:20;16.70;;;12.57;;
7541;SDS011;3812;50.006;8.230;2022-08-19T02:24:47;15.17;;;12.97;;
7541;SDS011;3812;50.006;8.230;2022-08-19T02:27:15;14.73;;;12.20;;
7541;SDS011;3812;50.006;8.230;2022-08-19T02:29:42;15.50;;;12.27;;
7541;SDS011;3812;50.006;8.230;2022-08-19T02:32:10;15.97;;;13.03;;
7541;SDS011;3812;50.006;8.230;2022-08-19T02:34:38;13.93;;;11.63;;
7541;SDS011;3812;50.006;8.230;2022-08-19T02:37:05;14.23;;;11.13;;
7541;SDS011;3812;50.006;8.230;2022-08-19T02:39:53;14.50;;;10.90;;
7541;SDS011;3812;50.006;8.230;2022-08-19T02:42:19;14.27;;;11.37;;
7541;SDS011;3812;50.006;8.230;2022-08-19T02:44:46;17.10;;;11.37;;
7541;SDS011;3812;50.006;8.230;2022-08-19T02:47:14;13.63;;;12.07;;
7541;SDS011;3812;50.006;8.230;2022-08-19T02:49:41;13.77;;;11.73;;
7541;SDS011;3812;50.006;8.230;2022-08-19T02:52:08;14.87;;;11.80;;
7541;SDS011;3812;50.006;8.230;2022-08-19T02:54:36;15.00;;;12.20;;
7541;SDS011;3812;50.006;8.230;2022-08-19T02:57:04;13.53;;;11.43;;
7541;SDS011;3812;50.006;8.230;2022-08-19T02:59:31;12.73;;;11.20;;
7541;SDS011;3812;50.006;8.230;2022-08-19T03:01:58;12.37;;;10.97;;
7541;SDS011;3812;50.006;8.230;2022-08-19T03:04:27;14.00;;;11.30;;
7541;SDS011;3812;50.006;8.230;2022-08-19T03:06:54;13.23;;;11.60;;
7541;SDS011;3812;50.006;8.230;2022-08-19T03:09:22;12.10;;;10.30;;
7541;SDS011;3812;50.006;8.230;2022-08-19T03:11:48;16.53;;;11.50;;
7541;SDS011;3812;50.006;8.230;2022-08-19T03:14:15;12.53;;;11.00;;
7541;SDS011;3812;50.006;8.230;2022-08-19T03:16:44;16.50;;;10.83;;
7541;SDS011;3812;50.006;8.230;2022-08-19T03:19:12;14.67;;;11.33;;
7541;SDS011;3812;50.006;8.230;2022-08-19T03:21:41;14.43;;;11.93;;
7541;SDS011;3812;50.006;8.230;2022-08-19T03:24:10;15.27;;;11.47;;
7541;SDS011;3812;50.006;8.230;2022-08-19T03:26:39;15.10;;;12.33;;
7541;SDS011;3812;50.006;8.230;2022-08-19T03:29:07;13.57;;;10.90;;
7541;SDS011;3812;50.006;8.230;2022-08-19T03:31:35;15.43;;;10.67;;
7541;SDS011;3812;50.006;8.230;2022-08-19T03:34:03;13.67;;;11.53;;
7541;SDS011;3812;50.006;8.230;2022-08-19T03:36:30;13.60;;;11.37;;
7541;SDS011;3812;50.006;8.230;2022-08-19T03:38:59;14.77;;;11.40;;
7541;SDS011;3812;50.006;8.230;2022-08-19T03:41:28;15.27;;;12.03;;
7541;SDS011;3812;50.006;8.230;2022-08-19T03:43:56;14.90;;;12.20;;
7541;SDS011;3812;50.006;8.230;2022-08-19T03:46:24;14.50;;;11.50;;
7541;SDS011;3812;50.006;8.230;2022-08-19T03:48:54;15.93;;;12.10;;
7541;SDS011;3812;50.006;8.230;2022-08-19T03:51:27;13.30;;;11.10;;
7541;SDS011;3812;50.006;8.230;2022-08-19T03:53:56;14.53;;;11.80;;
7541;SDS011;3812;50.006;8.230;2022-08-19T03:56:26;14.43;;;11.73;;
7541;SDS011;3812;50.006;8.230;2022-08-19T03:58:54;14.47;;;11.07;;
7541;SDS011;3812;50.006;8.230;2022-08-19T04:01:22;13.70;;;10.37;;
7541;SDS011;3812;50.006;8.230;2022-08-19T04:03:52;13.37;;;11.07;;
7541;SDS011;3812;50.006;8.230;2022-08-19T04:06:22;14.47;;;11.90;;
7541;SDS011;3812;50.006;8.230;2022-08-19T04:08:51;15.77;;;12.03;;
7541;SDS011;3812;50.006;8.230;2022-08-19T04:11:22;13.00;;;11.43;;
7541;SDS011;3812;50.006;8.230;2022-08-19T04:13:51;14.03;;;10.80;;
7541;SDS011;3812;50.006;8.230;2022-08-19T04:16:20;13.37;;;11.67;;
7541;SDS011;3812;50.006;8.230;2022-08-19T04:18:49;16.10;;;11.37;;
7541;SDS011;3812;50.006;8.230;2022-08-19T04:21:17;15.03;;;11.00;;
7541;SDS011;3812;50.006;8.230;2022-08-19T04:23:46;13.90;;;11.20;;
7541;SDS011;3812;50.006;8.230;2022-08-19T04:26:14;16.50;;;11.57;;
7541;SDS011;3812;50.006;8.230;2022-08-19T04:28:43;14.03;;;11.23;;
7541;SDS011;3812;50.006;8.230;2022-08-19T04:31:12;14.53;;;11.67;;
7541;SDS011;3812;50.006;8.230;2022-08-19T04:33:40;14.33;;;11.13;;
7541;SDS011;3812;50.006;8.230;2022-08-19T04:36:07;15.50;;;11.40;;
7541;SDS011;3812;50.006;8.230;2022-08-19T04:38:41;14.83;;;11.20;;
7541;SDS011;3812;50.006;8.230;2022-08-19T04:41:08;12.63;;;11.33;;
7541;SDS011;3812;50.006;8.230;2022-08-19T04:43:54;14.17;;;10.77;;
7541;SDS011;3812;50.006;8.230;2022-08-19T04:46:21;12.50;;;11.17;;
7541;SDS011;3812;50.006;8.230;2022-08-19T04:48:48;14.10;;;10.97;;
7541;SDS011;3812;50.006;8.230;2022-08-19T04:51:15;16.33;;;11.50;;
7541;SDS011;3812;50.006;8.230;2022-08-19T04:53:42;13.63;;;10.77;;
7541;SDS011;3812;50.006;8.230;2022-08-19T04:56:09;13.40;;;10.97;;
7541;SDS011;3812;50.006;8.230;2022-08-19T04:58:39;16.67;;;11.67;;
7541;SDS011;3812;50.006;8.230;2022-08-19T05:01:09;12.00;;;10.50;;
7541;SDS011;3812;50.006;8.230;2022-08-19T05:03:37;13.10;;;10.67;;
7541;SDS011;3812;50.006;8.230;2022-08-19T05:06:05;14.43;;;11.63;;
7541;SDS011;3812;50.006;8.230;2022-08-19T05:08:34;13.83;;;10.10;;
7541;SDS011;3812;50.006;8.230;2022-08-19T05:11:07;12.53;;;10.77;;
7541;SDS011;3812;50.006;8.230;2022-08-19T05:13:36;15.17;;;10.73;;
7541;SDS011;3812;50.006;8.230;2022-08-19T05:16:03;15.93;;;11.43;;
7541;SDS011;3812;50.006;8.230;2022-08-19T05:18:32;14.53;;;11.27;;
7541;SDS011;3812;50.006;8.230;2022-08-19T05:21:17;11.87;;;10.30;;
7541;SDS011;3812;50.006;8.230;2022-08-19T05:24:03;13.37;;;10.63;;
7541;SDS011;3812;50.006;8.230;2022-08-19T05:26:33;14.90;;;11.50;;
7541;SDS011;3812;50.006;8.230;2022-08-19T05:29:00;16.07;;;10.83;;
7541;SDS011;3812;50.006;8.230;2022-08-19T05:31:28;14.93;;;11.10;;
7541;SDS011;3812;50.006;8.230;2022-08-19T05:33:56;13.17;;;10.90;;
7541;SDS011;3812;50.006;8.230;2022-08-19T05:36:24;13.87;;;11.83;;
7541;SDS011;3812;50.006;8.230;2022-08-19T05:38:51;12.43;;;11.10;;
7541;SDS011;3812;50.006;8.230;2022-08-19T05:41:19;15.07;;;11.33;;
7541;SDS011;3812;50.006;8.230;2022-08-19T05:43:48;14.73;;;11.13;;
7541;SDS011;3812;50.006;8.230;2022-08-19T05:46:16;13.07;;;10.83;;
7541;SDS011;3812;50.006;8.230;2022-08-19T05:48:45;12.43;;;10.53;;
7541;SDS011;3812;50.006;8.230;2022-08-19T05:51:15;14.23;;;10.53;;
7541;SDS011;3812;50.006;8.230;2022-08-19T05:53:42;12.87;;;9.97;;
7541;SDS011;3812;50.006;8.230;2022-08-19T05:56:11;12.33;;;10.30;;
7541;SDS011;3812;50.006;8.230;2022-08-19T05:58:41;14.83;;;9.97;;
7541;SDS011;3812;50.006;8.230;2022-08-19T06:01:10;11.20;;;9.27;;
7541;SDS011;3812;50.006;8.230;2022-08-19T06:03:39;13.00;;;10.27;;
7541;SDS011;3812;50.006;8.230;2022-08-19T06:06:07;11.97;;;9.97;;
7541;SDS011;3812;50.006;8.230;2022-08-19T06:08:37;14.03;;;9.87;;
7541;SDS011;3812;50.006;8.230;2022-08-19T06:11:18;11.37;;;9.03;;
7541;SDS011;3812;50.006;8.230;2022-08-19T06:13:47;10.87;;;9.73;;
7541;SDS011;3812;50.006;8.230;2022-08-19T06:16:16;9.87;;;8.57;;
7541;SDS011;3812;50.006;8.230;2022-08-19T06:18:48;10.07;;;8.77;;
7541;SDS011;3812;50.006;8.230;2022-08-19T06:21:18;11.10;;;8.80;;
7541;SDS011;3812;50.006;8.230;2022-08-19T06:23:47;10.50;;;9.37;;
7541;SDS011;3812;50.006;8.230;2022-08-19T06:26:16;10.17;;;8.60;;
7541;SDS011;3812;50.006;8.230;2022-08-19T06:28:44;9.43;;;8.43;;
7541;SDS011;3812;50.006;8.230;2022-08-19T06:31:12;11.27;;;9.30;;
7541;SDS011;3812;50.006;8.230;2022-08-19T06:33:41;9.70;;;8.70;;
7541;SDS011;3812;50.006;8.230;2022-08-19T06:36:15;11.70;;;7.87;;
7541;SDS011;3812;50.006;8.230;2022-08-19T06:38:44;11.87;;;8.23;;
7541;SDS011;3812;50.006;8.230;2022-08-19T06:41:12;10.53;;;7.93;;
7541;SDS011;3812;50.006;8.230;2022-08-19T06:43:39;9.47;;;8.50;;
7541;SDS011;3812;50.006;8.230;2022-08-19T06:46:11;9.27;;;8.17;;
7541;SDS011;3812;50.006;8.230;2022-08-19T06:48:39;10.47;;;8.53;;
7541;SDS011;3812;50.006;8.230;2022-08-19T06:51:07;10.27;;;8.53;;
7541;SDS011;3812;50.006;8.230;2022-08-19T06:53:33;11.60;;;7.80;;
7541;SDS011;3812;50.006;8.230;2022-08-19T06:56:01;8.63;;;7.63;;
7541;SDS011;3812;50.006;8.230;2022-08-19T06:58:29;11.80;;;7.63;;
7541;SDS011;3812;50.006;8.230;2022-08-19T07:00:59;12.27;;;7.13;;
7541;SDS011;3812;50.006;8.230;2022-08-19T07:03:28;10.73;;;7.73;;
7541;SDS011;3812;50.006;8.230;2022-08-19T07:05:56;7.53;;;6.47;;
7541;SDS011;3812;50.006;8.230;2022-08-19T07:08:24;9.57;;;8.50;;
7541;SDS011;3812;50.006;8.230;2022-08-19T07:10:52;10.17;;;7.40;;
7541;SDS011;3812;50.006;8.230;2022-08-19T07:13:20;8.57;;;7.03;;
7541;SDS011;3812;50.006;8.230;2022-08-19T07:15:49;9.63;;;7.87;;
7541;SDS011;3812;50.006;8.230;2022-08-19T07:18:17;11.30;;;7.23;;
7541;SDS011;3812;50.006;8.230;2022-08-19T07:20:44;9.40;;;7.50;;
7541;SDS011;3812;50.006;8.230;2022-08-19T07:23:12;9.60;;;7.57;;
7541;SDS011;3812;50.006;8.230;2022-08-19T07:25:39;7.63;;;6.37;;
7541;SDS011;3812;50.006;8.230;2022-08-19T07:28:06;10.67;;;7.23;;
7541;SDS011;3812;50.006;8.230;2022-08-19T07:30:36;8.73;;;7.83;;
7541;SDS011;3812;50.006;8.230;2022-08-19T07:33:07;10.53;;;7.10;;
7541;SDS011;3812;50.006;8.230;2022-08-19T07:35:34;8.63;;;6.87;;
7541;SDS011;3812;50.006;8.230;2022-08-19T07:38:01;9.50;;;6.20;;
7541;SDS011;3812;50.006;8.230;2022-08-19T07:40:29;12.63;;;7.50;;
7541;SDS011;3812;50.006;8.230;2022-08-19T07:42:56;12.23;;;8.03;;
7541;SDS011;3812;50.006;8.230;2022-08-19T07:45:23;10.13;;;7.20;;
7541;SDS011;3812;50.006;8.230;2022-08-19T07:47:51;9.07;;;6.93;;
7541;SDS011;3812;50.006;8.230;2022-08-19T07:50:20;9.20;;;6.63;;
7541;SDS011;3812;50.006;8.230;2022-08-19T07:52:48;9.53;;;7.63;;
7541;SDS011;3812;50.006;8.230;2022-08-19T07:55:17;10.53;;;8.87;;
7541;SDS011;3812;50.006;8.230;2022-08-19T07:57:46;8.70;;;7.80;;
7541;SDS011;3812;50.006;8.230;2022-08-19T08:00:14;10.80;;;8.03;;
7541;SDS011;3812;50.006;8.230;2022-08-19T08:02:41;11.53;;;7.20;;
7541;SDS011;3812;50.006;8.230;2022-08-19T08:05:08;13.30;;;9.33;;
7541;SDS011;3812;50.006;8.230;2022-08-19T08:07:54;13.57;;;11.03;;
7541;SDS011;3812;50.006;8.230;2022-08-19T08:10:39;11.23;;;9.03;;
7541;SDS011;3812;50.006;8.230;2022-08-19T08:13:06;13.23;;;9.77;;
7541;SDS011;3812;50.006;8.230;2022-08-19T08:15:33;13.77;;;10.73;;
7541;SDS011;3812;50.006;8.230;2022-08-19T08:18:02;12.07;;;9.73;;
7541;SDS011;3812;50.006;8.230;2022-08-19T08:20:29;12.10;;;9.83;;
7541;SDS011;3812;50.006;8.230;2022-08-19T08:22:58;11.43;;;9.90;;
7541;SDS011;3812;50.006;8.230;2022-08-19T08:25:42;17.43;;;12.97;;
7541;SDS011;3812;50.006;8.230;2022-08-19T08:28:09;13.50;;;11.13;;
7541;SDS011;3812;50.006;8.230;2022-08-19T08:30:36;14.27;;;11.27;;
7541;SDS011;3812;50.006;8.230;2022-08-19T08:33:06;18.03;;;14.73;;
7541;SDS011;3812;50.006;8.230;2022-08-19T08:35:33;19.17;;;15.13;;
7541;SDS011;3812;50.006;8.230;2022-08-19T08:38:02;19.43;;;14.93;;
7541;SDS011;3812;50.006;8.230;2022-08-19T08:40:31;17.97;;;13.50;;
7541;SDS011;3812;50.006;8.230;2022-08-19T08:43:07;13.23;;;11.20;;
7541;SDS011;3812;50.006;8.230;2022-08-19T08:45:42;12.40;;;9.97;;
7541;SDS011;3812;50.006;8.230;2022-08-19T08:48:15;17.53;;;11.57;;
7541;SDS011;3812;50.006;8.230;2022-08-19T08:50:46;12.93;;;8.80;;
7541;SDS011;3812;50.006;8.230;2022-08-19T08:53:19;10.13;;;9.07;;
7541;SDS011;3812;50.006;8.230;2022-08-19T08:55:47;11.97;;;9.67;;
7541;SDS011;3812;50.006;8.230;2022-08-19T08:58:16;9.87;;;8.73;;
7541;SDS011;3812;50.006;8.230;2022-08-19T09:00:47;10.50;;;8.37;;
7541;SDS011;3812;50.006;8.230;2022-08-19T09:03:16;9.77;;;8.53;;
7541;SDS011;3812;50.006;8.230;2022-08-19T09:05:48;10.73;;;6.73;;
7541;SDS011;3812;50.006;8.230;2022-08-19T09:08:26;7.87;;;6.97;;
7541;SDS011;3812;50.006;8.230;2022-08-19T09:11:03;8.80;;;6.43;;
7541;SDS011;3812;50.006;8.230;2022-08-19T09:13:34;7.50;;;6.67;;
7541;SDS011;3812;50.006;8.230;2022-08-19T09:16:16;8.73;;;7.30;;
7541;SDS011;3812;50.006;8.230;2022-08-19T09:18:48;9.57;;;7.63;;
7541;SDS011;3812;50.006;8.230;2022-08-19T09:21:18;8.03;;;6.37;;
7541;SDS011;3812;50.006;8.230;2022-08-19T09:23:49;8.00;;;6.90;;
7541;SDS011;3812;50.006;8.230;2022-08-19T09:26:17;9.17;;;7.37;;
7541;SDS011;3812;50.006;8.230;2022-08-19T09:28:46;8.07;;;7.10;;
7541;SDS011;3812;50.006;8.230;2022-08-19T09:31:16;8.13;;;6.87;;
7541;SDS011;3812;50.006;8.230;2022-08-19T09:33:45;9.67;;;8.73;;
7541;SDS011;3812;50.006;8.230;2022-08-19T09:36:14;11.03;;;10.03;;
7541;SDS011;3812;50.006;8.230;2022-08-19T09:38:43;11.43;;;10.43;;
7541;SDS011;3812;50.006;8.230;2022-08-19T09:41:13;11.23;;;10.20;;
7541;SDS011;3812;50.006;8.230;2022-08-19T09:43:43;13.33;;;12.00;;
7541;SDS011;3812;50.006;8.230;2022-08-19T09:46:12;13.70;;;12.30;;
7541;SDS011;3812;50.006;8.230;2022-08-19T09:48:39;11.50;;;10.40;;
7541;SDS011;3812;50.006;8.230;2022-08-19T09:51:09;12.80;;;11.30;;
7541;SDS011;3812;50.006;8.230;2022-08-19T09:53:40;11.77;;;10.57;;
7541;SDS011;3812;50.006;8.230;2022-08-19T09:56:08;14.03;;;10.83;;
7541;SDS011;3812;50.006;8.230;2022-08-19T09:58:37;12.87;;;11.37;;
7541;SDS011;3812;50.006;8.230;2022-08-19T10:01:05;10.70;;;9.60;;
7541;SDS011;3812;50.006;8.230;2022-08-19T10:03:34;10.03;;;8.87;;
7541;SDS011;3812;50.006;8.230;2022-08-19T10:06:03;9.97;;;8.83;;
7541;SDS011;3812;50.006;8.230;2022-08-19T10:08:33;11.37;;;9.50;;
7541;SDS011;3812;50.006;8.230;2022-08-19T10:11:02;9.17;;;8.27;;
7541;SDS011;3812;50.006;8.230;2022-08-19T10:13:31;8.97;;;6.90;;
7541;SDS011;3812;50.006;8.230;2022-08-19T10:16:04;7.70;;;6.57;;
7541;SDS011;3812;50.006;8.230;2022-08-19T10:18:33;6.60;;;5.90;;
7541;SDS011;3812;50.006;8.230;2022-08-19T10:21:03;7.70;;;6.30;;
7541;SDS011;3812;50.006;8.230;2022-08-19T10:23:33;8.57;;;7.53;;
7541;SDS011;3812;50.006;8.230;2022-08-19T10:26:01;8.47;;;6.90;;
7541;SDS011;3812;50.006;8.230;2022-08-19T10:28:29;7.70;;;6.90;;
7541;SDS011;3812;50.006;8.230;2022-08-19T10:30:56;7.77;;;6.60;;
7541;SDS011;3812;50.006;8.230;2022-08-19T10:33:25;6.17;;;5.50;;
7541;SDS011;3812;50.006;8.230;2022-08-19T10:35:58;5.93;;;5.37;;
7541;SDS011;3812;50.006;8.230;2022-08-19T10:38:25;6.17;;;5.57;;
7541;SDS011;3812;50.006;8.230;2022-08-19T10:40:53;6.20;;;5.60;;
7541;SDS011;3812;50.006;8.230;2022-08-19T10:43:20;8.07;;;5.80;;
7541;SDS011;3812;50.006;8.230;2022-08-19T10:45:51;6.30;;;5.73;;
7541;SDS011;3812;50.006;8.230;2022-08-19T10:48:20;7.40;;;5.87;;
7541;SDS011;3812;50.006;8.230;2022-08-19T10:50:48;6.90;;;5.27;;
7541;SDS011;3812;50.006;8.230;2022-08-19T10:53:32;7.27;;;5.47;;
7541;SDS011;3812;50.006;8.230;2022-08-19T10:55:59;6.40;;;5.17;;
7541;SDS011;3812;50.006;8.230;2022-08-19T10:58:44;5.90;;;5.30;;
7541;SDS011;3812;50.006;8.230;2022-08-19T11:01:11;5.40;;;4.90;;
7541;SDS011;3812;50.006;8.230;2022-08-19T11:03:38;5.60;;;4.70;;
7541;SDS011;3812;50.006;8.230;2022-08-19T11:06:18;7.37;;;5.53;;
7541;SDS011;3812;50.006;8.230;2022-08-19T11:08:45;5.97;;;5.33;;
7541;SDS011;3812;50.006;8.230;2022-08-19T11:11:12;7.70;;;5.30;;
7541;SDS011;3812;50.006;8.230;2022-08-19T11:13:40;5.73;;;5.23;;
7541;SDS011;3812;50.006;8.230;2022-08-19T11:16:09;6.57;;;5.20;;
7541;SDS011;3812;50.006;8.230;2022-08-19T11:18:40;5.87;;;5.30;;
7541;SDS011;3812;50.006;8.230;2022-08-19T11:21:10;6.03;;;5.03;;
7541;SDS011;3812;50.006;8.230;2022-08-19T11:23:43;5.53;;;5.03;;
7541;SDS011;3812;50.006;8.230;2022-08-19T11:26:11;6.73;;;5.00;;
7541;SDS011;3812;50.006;8.230;2022-08-19T11:28:39;5.07;;;4.67;;
7541;SDS011;3812;50.006;8.230;2022-08-19T11:31:09;5.67;;;5.10;;
7541;SDS011;3812;50.006;8.230;2022-08-19T11:33:40;4.87;;;4.37;;
7541;SDS011;3812;50.006;8.230;2022-08-19T11:36:07;7.97;;;5.20;;
7541;SDS011;3812;50.006;8.230;2022-08-19T11:38:35;5.93;;;5.30;;
7541;SDS011;3812;50.006;8.230;2022-08-19T11:41:05;7.83;;;5.43;;
7541;SDS011;3812;50.006;8.230;2022-08-19T11:43:33;5.17;;;4.67;;
7541;SDS011;3812;50.006;8.230;2022-08-19T11:46:03;5.57;;;5.07;;
7541;SDS011;3812;50.006;8.230;2022-08-19T11:48:32;5.30;;;4.80;;
7541;SDS011;3812;50.006;8.230;2022-08-19T11:51:02;5.22;;;4.72;;
7541;SDS011;3812;50.006;8.230;2022-08-19T11:53:31;5.30;;;4.80;;
7541;SDS011;3812;50.006;8.230;2022-08-19T11:55:59;6.15;;;5.00;;
7541;SDS011;3812;50.006;8.230;2022-08-19T11:58:27;5.05;;;4.53;;
7541;SDS011;3812;50.006;8.230;2022-08-19T12:00:55;6.05;;;5.55;;
7541;SDS011;3812;50.006;8.230;2022-08-19T12:03:22;4.60;;;4.20;;
7541;SDS011;3812;50.006;8.230;2022-08-19T12:05:49;5.63;;;4.60;;
7541;SDS011;3812;50.006;8.230;2022-08-19T12:08:17;4.80;;;4.40;;
7541;SDS011;3812;50.006;8.230;2022-08-19T12:10:44;4.63;;;4.25;;
7541;SDS011;3812;50.006;8.230;2022-08-19T12:13:12;8.55;;;4.60;;
7541;SDS011;3812;50.006;8.230;2022-08-19T12:15:45;4.65;;;4.07;;
7541;SDS011;3812;50.006;8.230;2022-08-19T12:18:13;4.95;;;4.53;;
7541;SDS011;3812;50.006;8.230;2022-08-19T12:20:42;5.18;;;4.53;;
7541;SDS011;3812;50.006;8.230;2022-08-19T12:23:10;5.18;;;4.68;;
7541;SDS011;3812;50.006;8.230;2022-08-19T12:25:42;6.10;;;5.50;;
7541;SDS011;3812;50.006;8.230;2022-08-19T12:28:13;5.13;;;4.68;;
7541;SDS011;3812;50.006;8.230;2022-08-19T12:30:40;7.40;;;5.38;;
7541;SDS011;3812;50.006;8.230;2022-08-19T12:33:08;4.97;;;4.43;;
7541;SDS011;3812;50.006;8.230;2022-08-19T12:35:38;5.50;;;4.65;;
7541;SDS011;3812;50.006;8.230;2022-08-19T12:38:06;5.10;;;4.70;;
7541;SDS011;3812;50.006;8.230;2022-08-19T12:40:33;5.15;;;4.70;;
7541;SDS011;3812;50.006;8.230;2022-08-19T12:42:59;6.03;;;4.35;;
7541;SDS011;3812;50.006;8.230;2022-08-19T12:45:26;4.70;;;4.30;;
7541;SDS011;3812;50.006;8.230;2022-08-19T12:47:54;5.15;;;4.65;;
7541;SDS011;3812;50.006;8.230;2022-08-19T12:50:22;5.45;;;4.25;;
7541;SDS011;3812;50.006;8.230;2022-08-19T12:52:49;5.83;;;4.40;;
7541;SDS011;3812;50.006;8.230;2022-08-19T12:55:16;4.25;;;3.80;;
7541;SDS011;3812;50.006;8.230;2022-08-19T12:57:44;5.10;;;4.25;;
7541;SDS011;3812;50.006;8.230;2022-08-19T13:00:15;4.43;;;4.03;;
7541;SDS011;3812;50.006;8.230;2022-08-19T13:02:46;4.53;;;4.13;;
7541;SDS011;3812;50.006;8.230;2022-08-19T13:05:16;6.13;;;4.30;;
7541;SDS011;3812;50.006;8.230;2022-08-19T13:07:47;5.80;;;3.97;;
7541;SDS011;3812;50.006;8.230;2022-08-19T13:10:15;5.40;;;4.30;;
7541;SDS011;3812;50.006;8.230;2022-08-19T13:12:45;4.57;;;4.10;;
7541;SDS011;3812;50.006;8.230;2022-08-19T13:15:13;4.63;;;4.20;;
7541;SDS011;3812;50.006;8.230;2022-08-19T13:17:45;4.70;;;3.97;;
7541;SDS011;3812;50.006;8.230;2022-08-19T13:20:12;4.35;;;3.92;;
7541;SDS011;3812;50.006;8.230;2022-08-19T13:22:39;3.85;;;3.50;;
7541;SDS011;3812;50.006;8.230;2022-08-19T13:25:09;4.40;;;4.00;;
7541;SDS011;3812;50.006;8.230;2022-08-19T13:27:37;3.70;;;3.40;;
7541;SDS011;3812;50.006;8.230;2022-08-19T13:30:06;4.45;;;4.05;;
7541;SDS011;3812;50.006;8.230;2022-08-19T13:32:52;3.60;;;3.30;;
7541;SDS011;3812;50.006;8.230;2022-08-19T13:35:40;3.95;;;3.50;;
7541;SDS011;3812;50.006;8.230;2022-08-19T13:38:08;3.90;;;3.60;;
7541;SDS011;3812;50.006;8.230;2022-08-19T13:40:38;3.90;;;3.53;;
7541;SDS011;3812;50.006;8.230;2022-08-19T13:43:05;5.80;;;3.40;;
7541;SDS011;3812;50.006;8.230;2022-08-19T13:45:34;3.50;;;3.20;;
7541;SDS011;3812;50.006;8.230;2022-08-19T13:48:02;2.97;;;2.78;;
7541;SDS011;3812;50.006;8.230;2022-08-19T13:50:34;3.40;;;2.50;;
7541;SDS011;3812;50.006;8.230;2022-08-19T13:53:04;4.35;;;2.67;;
7541;SDS011;3812;50.006;8.230;2022-08-19T13:55:31;4.50;;;3.25;;
7541;SDS011;3812;50.006;8.230;2022-08-19T13:57:59;5.50;;;3.40;;
7541;SDS011;3812;50.006;8.230;2022-08-19T14:00:31;4.68;;;2.90;;
7541;SDS011;3812;50.006;8.230;2022-08-19T14:02:59;3.42;;;3.13;;
7541;SDS011;3812;50.006;8.230;2022-08-19T14:05:26;3.97;;;3.25;;
7541;SDS011;3812;50.006;8.230;2022-08-19T14:07:55;4.07;;;3.78;;
7541;SDS011;3812;50.006;8.230;2022-08-19T14:10:23;4.80;;;4.00;;
7541;SDS011;3812;50.006;8.230;2022-08-19T14:12:52;5.68;;;4.00;;
7541;SDS011;3812;50.006;8.230;2022-08-19T14:15:22;4.53;;;3.70;;
7541;SDS011;3812;50.006;8.230;2022-08-19T14:17:49;3.25;;;2.95;;
7541;SDS011;3812;50.006;8.230;2022-08-19T14:20:17;5.18;;;3.45;;
7541;SDS011;3812;50.006;8.230;2022-08-19T14:22:44;6.75;;;3.30;;
7541;SDS011;3812;50.006;8.230;2022-08-19T14:25:15;3.55;;;3.25;;
7541;SDS011;3812;50.006;8.230;2022-08-19T14:27:44;3.38;;;3.15;;
7541;SDS011;3812;50.006;8.230;2022-08-19T14:30:12;4.25;;;3.40;;
7541;SDS011;3812;50.006;8.230;2022-08-19T14:32:42;6.80;;;3.00;;
7541;SDS011;3812;50.006;8.230;2022-08-19T14:35:10;3.88;;;3.58;;
7541;SDS011;3812;50.006;8.230;2022-08-19T14:37:39;4.00;;;3.70;;
7541;SDS011;3812;50.006;8.230;2022-08-19T14:40:08;3.55;;;3.30;;
7541;SDS011;3812;50.006;8.230;2022-08-19T14:42:35;3.60;;;3.30;;
7541;SDS011;3812;50.006;8.230;2022-08-19T14:45:03;5.45;;;3.50;;
7541;SDS011;3812;50.006;8.230;2022-08-19T14:47:31;4.10;;;3.42;;
7541;SDS011;3812;50.006;8.230;2022-08-19T14:49:59;3.83;;;3.53;;
7541;SDS011;3812;50.006;8.230;2022-08-19T14:52:26;3.88;;;3.58;;
7541;SDS011;3812;50.006;8.230;2022-08-19T14:54:53;3.70;;;3.40;;
7541;SDS011;3812;50.006;8.230;2022-08-19T14:57:20;5.03;;;3.50;;
7541;SDS011;3812;50.006;8.230;2022-08-19T14:59:48;4.13;;;3.72;;
7541;SDS011;3812;50.006;8.230;2022-08-19T15:02:15;4.75;;;3.47;;
7541;SDS011;3812;50.006;8.230;2022-08-19T15:04:42;5.78;;;3.90;;
7541;SDS011;3812;50.006;8.230;2022-08-19T15:07:11;4.28;;;3.97;;
7541;SDS011;3812;50.006;8.230;2022-08-19T15:09:38;4.03;;;3.65;;
7541;SDS011;3812;50.006;8.230;2022-08-19T15:12:07;4.03;;;3.63;;